Time;durP1;ratioP1;P1;durP2;ratioP2;P2;SDS_P1;SDS_P2;PMS_P1;PMS_P2;Temp;Humidity;BMP_temperature;BMP_pressure;BME280_temperature;BME280_humidity;BME280_pressure;Samples;Min_cycle;Max_cycle;Signal;HPM_P1;HPM_P2
2021/05/19 00:00:28;;;;;;;3.25;1.63;;;9.60;80.00;;;;;;2071285;28;20049;-84
2021/05/19 00:01:29;;;;;;;3.15;1.80;;;9.70;80.10;;;;;;2067406;28;20057;-84
2021/05/19 00:02:29;;;;;;;3.05;1.65;;;9.70;80.10;;;;;;2069459;28;20318;-84
2021/05/19 00:03:30;;;;;;;2.65;1.50;;;9.60;80.00;;;;;;2072157;28;20493;-83
2021/05/19 00:04:31;;;;;;;2.78;1.70;;;9.70;80.10;;;;;;2070600;28;20113;-83
2021/05/19 00:05:31;;;;;;;2.83;1.75;;;9.60;80.00;;;;;;2080197;28;20033;-83
2021/05/19 00:06:32;;;;;;;2.80;1.70;;;9.60;80.10;;;;;;2074805;28;20041;-83
2021/05/19 00:07:33;;;;;;;2.50;1.70;;;9.70;80.20;;;;;;2055831;28;20026;-83
2021/05/19 00:08:34;;;;;;;2.90;1.88;;;9.60;80.20;;;;;;2054759;28;20026;-83
2021/05/19 00:09:34;;;;;;;3.05;1.70;;;9.60;80.30;;;;;;2078889;28;20029;-83
2021/05/19 00:10:36;;;;;;;2.85;1.70;;;9.60;80.30;;;;;;2076272;28;20399;-83
2021/05/19 00:11:38;;;;;;;3.90;1.77;;;9.60;80.40;;;;;;2060817;28;20366;-84
2021/05/19 00:12:38;;;;;;;3.38;1.50;;;9.60;80.40;;;;;;2069069;28;20030;-84
2021/05/19 00:13:40;;;;;;;5.30;1.70;;;9.60;80.50;;;;;;2064389;28;20033;-84
2021/05/19 00:14:40;;;;;;;3.63;1.83;;;9.60;80.40;;;;;;2070122;28;20038;-84
2021/05/19 00:15:41;;;;;;;2.97;1.60;;;9.60;80.50;;;;;;2078797;28;20034;-84
2021/05/19 00:16:44;;;;;;;2.97;1.67;;;9.60;81.10;;;;;;2070882;28;20038;-84
2021/05/19 00:17:46;;;;;;;3.33;1.80;;;9.60;80.60;;;;;;2072187;28;20058;-84
2021/05/19 00:18:47;;;;;;;3.42;1.67;;;9.60;80.70;;;;;;2072085;28;20427;-83
2021/05/19 00:19:47;;;;;;;3.83;1.80;;;9.60;80.70;;;;;;2076547;28;20066;-84
2021/05/19 00:20:48;;;;;;;3.58;1.60;;;9.60;80.80;;;;;;2070435;28;20639;-84
2021/05/19 00:21:49;;;;;;;2.53;1.60;;;9.60;80.80;;;;;;2066595;28;20515;-84
2021/05/19 00:22:49;;;;;;;3.00;1.88;;;9.60;80.80;;;;;;2073382;28;20592;-84
2021/05/19 00:23:51;;;;;;;2.35;1.52;;;9.60;80.80;;;;;;2068098;28;20570;-84
2021/05/19 00:24:51;;;;;;;2.45;1.80;;;9.50;80.80;;;;;;2064980;28;20117;-84
2021/05/19 00:25:52;;;;;;;3.17;1.95;;;9.50;80.80;;;;;;2073059;28;20037;-84
2021/05/19 00:26:52;;;;;;;2.75;1.90;;;9.50;80.90;;;;;;2070691;28;20498;-85
2021/05/19 00:27:54;;;;;;;4.70;1.90;;;9.50;80.90;;;;;;2069652;28;20515;-84
2021/05/19 00:28:56;;;;;;;3.13;1.80;;;9.50;81.00;;;;;;2063971;28;20058;-84
2021/05/19 00:29:57;;;;;;;3.28;1.80;;;9.50;81.60;;;;;;2076357;28;20061;-84
2021/05/19 00:31:00;;;;;;;2.97;1.70;;;9.50;81.10;;;;;;2071044;28;20022;-84
2021/05/19 00:32:01;;;;;;;2.60;1.83;;;9.50;81.20;;;;;;2070314;28;20050;-84
2021/05/19 00:33:02;;;;;;;3.53;1.83;;;9.50;81.20;;;;;;2063959;28;20109;-84
2021/05/19 00:34:03;;;;;;;3.47;1.77;;;9.50;81.20;;;;;;2064419;28;20038;-84
2021/05/19 00:35:04;;;;;;;3.25;1.90;;;9.50;81.20;;;;;;2074251;28;20056;-84
2021/05/19 00:36:05;;;;;;;3.20;1.90;;;9.50;81.30;;;;;;2069954;28;20030;-84
2021/05/19 00:37:05;;;;;;;3.53;1.58;;;9.50;81.30;;;;;;2071753;28;20034;-84
2021/05/19 00:38:06;;;;;;;3.72;2.10;;;9.50;81.30;;;;;;2071763;28;20034;-84
2021/05/19 00:39:09;;;;;;;3.40;1.83;;;9.40;81.30;;;;;;2079449;28;20049;-84
2021/05/19 00:40:11;;;;;;;2.47;1.70;;;9.50;81.40;;;;;;2079466;28;20029;-84
2021/05/19 00:41:12;;;;;;;2.83;1.88;;;9.50;81.50;;;;;;2068082;28;20034;-84
2021/05/19 00:42:15;;;;;;;2.75;1.70;;;9.40;81.50;;;;;;2056556;28;20035;-84
2021/05/19 00:43:16;;;;;;;3.22;1.77;;;9.40;81.50;;;;;;2052330;28;20023;-84
2021/05/19 00:44:17;;;;;;;2.85;1.70;;;9.50;81.60;;;;;;2064343;28;20049;-85
2021/05/19 00:45:18;;;;;;;3.42;2.10;;;9.40;81.60;;;;;;2072529;28;20117;-84
2021/05/19 00:46:19;;;;;;;3.47;1.70;;;9.50;81.70;;;;;;2071102;28;20049;-84
2021/05/19 00:47:33;;;;;;;2.60;1.75;;;9.40;81.60;;;;;;2058977;28;20031;-85
2021/05/19 00:48:35;;;;;;;2.63;1.90;;;9.40;81.70;;;;;;2075495;28;20030;-84
2021/05/19 00:49:36;;;;;;;2.15;1.60;;;9.40;81.70;;;;;;2073079;28;20090;-84
2021/05/19 00:50:38;;;;;;;2.65;1.90;;;9.40;81.70;;;;;;2064549;28;20061;-84
2021/05/19 00:51:40;;;;;;;3.95;2.03;;;9.40;81.80;;;;;;2066406;28;20038;-84
2021/05/19 00:52:40;;;;;;;3.25;1.88;;;9.40;81.90;;;;;;2078060;28;20084;-84
2021/05/19 00:53:41;;;;;;;2.65;1.90;;;9.40;81.90;;;;;;2071131;28;20030;-83
2021/05/19 00:54:42;;;;;;;3.03;1.90;;;9.40;81.90;;;;;;2068939;28;20034;-84
2021/05/19 00:55:42;;;;;;;3.53;2.20;;;9.40;81.90;;;;;;2070674;28;20439;-84
2021/05/19 00:56:44;;;;;;;3.25;1.80;;;9.40;82.00;;;;;;2061971;28;20038;-84
2021/05/19 00:57:45;;;;;;;3.92;2.33;;;9.40;82.10;;;;;;2072334;28;20029;-85
2021/05/19 00:58:47;;;;;;;3.60;2.15;;;9.30;82.10;;;;;;2090281;28;20026;-85
2021/05/19 00:59:48;;;;;;;3.53;2.00;;;9.30;82.20;;;;;;2067858;28;20044;-84
2021/05/19 01:00:49;;;;;;;2.80;2.00;;;9.30;82.20;;;;;;2076500;28;20025;-84
2021/05/19 01:01:50;;;;;;;3.75;2.30;;;9.30;82.30;;;;;;2092708;28;20037;-84
2021/05/19 01:02:51;;;;;;;2.47;1.60;;;9.30;82.30;;;;;;2080740;28;20028;-85
2021/05/19 01:03:53;;;;;;;3.38;1.92;;;9.30;82.30;;;;;;2070308;28;20037;-84
2021/05/19 01:04:55;;;;;;;4.05;2.20;;;9.30;83.00;;;;;;2075998;28;20022;-84
2021/05/19 01:06:05;;;;;;;4.25;2.20;;;9.30;82.40;;;;;;2070886;28;20033;-84
2021/05/19 01:09:34;;;;;;;3.83;2.38;;;9.30;82.50;;;;;;2076715;28;20036;-84
2021/05/19 01:09:49;;;;;;;3.33;2.10;;;9.30;82.40;;;;;;2084064;28;20026;-84
2021/05/19 01:10:51;;;;;;;3.30;2.15;;;9.30;82.90;;;;;;2077963;28;20026;-84
2021/05/19 01:11:52;;;;;;;3.20;2.28;;;9.40;82.30;;;;;;2075277;28;20033;-84
2021/05/19 01:12:53;;;;;;;2.97;2.33;;;9.30;82.30;;;;;;2057464;28;20045;-84
2021/05/19 01:13:53;;;;;;;3.70;2.40;;;9.40;82.30;;;;;;2066216;28;20072;-84
2021/05/19 01:14:54;;;;;;;2.67;2.00;;;9.40;82.40;;;;;;2077238;28;20444;-84
2021/05/19 01:15:55;;;;;;;2.83;2.03;;;9.40;82.40;;;;;;2074602;28;22145;-84
2021/05/19 01:16:57;;;;;;;3.50;2.05;;;9.50;82.50;;;;;;2074943;28;20087;-83
2021/05/19 01:17:58;;;;;;;3.78;2.30;;;9.50;82.50;;;;;;2062601;28;20539;-84
2021/05/19 01:18:59;;;;;;;2.97;2.10;;;9.50;82.40;;;;;;2058926;28;20114;-84
2021/05/19 01:19:59;;;;;;;3.35;2.20;;;9.60;82.50;;;;;;2063673;28;20030;-84
2021/05/19 01:21:01;;;;;;;4.18;2.58;;;9.60;82.50;;;;;;2076513;28;20164;-85
2021/05/19 01:22:27;;;;;;;4.03;2.35;;;9.60;82.50;;;;;;2072960;28;20045;-85
2021/05/19 01:23:30;;;;;;;3.17;2.30;;;9.60;82.40;;;;;;2078576;28;20104;-84
2021/05/19 01:24:31;;;;;;;3.47;2.38;;;9.70;82.40;;;;;;2074636;28;20585;-84
2021/05/19 01:25:34;;;;;;;3.05;2.25;;;9.70;82.40;;;;;;2066310;28;20029;-85
2021/05/19 01:26:34;;;;;;;3.53;2.30;;;9.70;82.50;;;;;;2077800;28;20022;-84
2021/05/19 01:27:35;;;;;;;3.92;2.17;;;9.70;82.40;;;;;;2082062;28;20113;-84
2021/05/19 01:28:38;;;;;;;3.88;2.40;;;9.70;82.40;;;;;;2083942;28;20036;-84
2021/05/19 01:29:39;;;;;;;3.72;2.50;;;9.70;82.50;;;;;;2074549;28;20488;-85
2021/05/19 01:30:41;;;;;;;4.10;2.75;;;9.80;82.50;;;;;;2078791;28;20033;-84
2021/05/19 01:31:46;;;;;;;3.72;2.50;;;9.80;82.40;;;;;;2076840;28;20045;-85
2021/05/19 01:32:47;;;;;;;3.75;2.45;;;9.80;82.40;;;;;;2086966;28;20128;-84
2021/05/19 01:33:49;;;;;;;3.67;2.67;;;9.80;82.40;;;;;;2072596;28;20381;-83
2021/05/19 01:34:50;;;;;;;4.20;2.67;;;9.90;82.40;;;;;;2065167;28;20029;-84
2021/05/19 01:35:51;;;;;;;4.78;2.90;;;9.90;82.40;;;;;;2074122;28;20033;-84
2021/05/19 01:36:51;;;;;;;3.65;2.40;;;9.90;82.40;;;;;;2073588;28;20129;-84
2021/05/19 01:37:52;;;;;;;5.88;3.00;;;9.90;82.40;;;;;;2063244;28;20563;-84
2021/05/19 01:38:53;;;;;;;3.90;2.45;;;9.90;82.50;;;;;;2069484;28;20440;-84
2021/05/19 01:39:53;;;;;;;5.22;2.70;;;9.90;82.50;;;;;;2048770;28;20061;-84
2021/05/19 01:40:54;;;;;;;3.90;2.55;;;9.90;82.60;;;;;;2057220;28;20046;-83
2021/05/19 01:41:55;;;;;;;4.18;2.70;;;9.90;82.70;;;;;;2073439;28;20064;-84
2021/05/19 01:42:55;;;;;;;4.05;2.80;;;9.90;83.10;;;;;;2065064;28;20500;-84
2021/05/19 01:43:56;;;;;;;4.72;2.70;;;9.90;82.70;;;;;;2056801;28;20030;-84
2021/05/19 01:44:57;;;;;;;3.63;2.85;;;9.90;82.80;;;;;;2052704;28;20031;-84
2021/05/19 01:46:00;;;;;;;4.07;2.88;;;9.80;82.70;;;;;;2072855;28;20033;-84
2021/05/19 01:47:05;;;;;;;4.70;2.85;;;9.90;82.90;;;;;;2072896;28;20058;-84
2021/05/19 01:48:10;;;;;;;4.25;2.80;;;9.90;82.90;;;;;;2075965;28;20075;-85
2021/05/19 01:49:13;;;;;;;4.57;2.90;;;9.80;82.80;;;;;;2073835;28;20084;-85
2021/05/19 01:50:21;;;;;;;4.30;2.78;;;9.80;82.90;;;;;;2067355;28;20038;-85
2021/05/19 01:51:22;;;;;;;3.65;2.67;;;9.80;83.00;;;;;;2074493;28;20018;-85
2021/05/19 01:52:25;;;;;;;4.38;3.10;;;9.80;83.00;;;;;;2070008;28;20030;-85
2021/05/19 01:53:27;;;;;;;4.72;2.90;;;9.80;83.10;;;;;;2068462;28;20034;-85
2021/05/19 01:54:29;;;;;;;4.47;3.03;;;9.70;83.10;;;;;;2080520;28;20025;-85
2021/05/19 01:55:29;;;;;;;4.85;3.13;;;9.70;83.10;;;;;;2075159;28;20036;-85
2021/05/19 01:56:30;;;;;;;4.60;3.10;;;9.70;83.20;;;;;;2078752;28;20566;-85
2021/05/19 01:57:32;;;;;;;4.82;3.33;;;9.70;83.20;;;;;;2065000;28;20492;-85
2021/05/19 01:58:32;;;;;;;4.32;3.08;;;9.70;83.30;;;;;;2057291;28;20035;-85
2021/05/19 01:59:34;;;;;;;4.00;2.97;;;9.70;83.30;;;;;;2079309;28;20025;-85
2021/05/19 02:00:34;;;;;;;5.90;3.60;;;9.60;83.30;;;;;;2081667;28;20055;-85
2021/05/19 02:01:35;;;;;;;4.45;2.97;;;9.60;83.30;;;;;;2072490;28;20064;-85
2021/05/19 02:02:36;;;;;;;4.68;3.17;;;9.60;84.00;;;;;;2069032;28;20058;-86
2021/05/19 02:03:37;;;;;;;5.00;3.20;;;9.60;83.50;;;;;;2072298;28;20034;-85
2021/05/19 02:04:40;;;;;;;5.38;3.30;;;9.60;83.50;;;;;;2078609;28;20498;-85
2021/05/19 02:05:41;;;;;;;4.90;3.20;;;9.60;83.60;;;;;;2072680;28;20057;-84
2021/05/19 02:06:47;;;;;;;4.75;3.28;;;9.50;83.60;;;;;;2065252;28;20038;-83
2021/05/19 02:07:48;;;;;;;4.70;3.40;;;9.50;83.70;;;;;;2064913;28;20033;-84
2021/05/19 02:08:48;;;;;;;4.65;3.30;;;9.50;83.80;;;;;;2073060;28;20539;-84
2021/05/19 02:09:49;;;;;;;4.78;3.13;;;9.50;83.80;;;;;;2074988;28;20097;-84
2021/05/19 02:10:49;;;;;;;4.90;3.28;;;9.50;83.80;;;;;;2075506;28;20121;-83
2021/05/19 02:11:51;;;;;;;4.57;2.92;;;9.50;83.80;;;;;;2064650;28;20153;-84
2021/05/19 02:12:52;;;;;;;5.13;3.10;;;9.50;83.90;;;;;;2064771;28;20428;-84
2021/05/19 02:13:52;;;;;;;5.15;3.33;;;9.40;83.80;;;;;;2065318;28;20034;-83
2021/05/19 02:14:53;;;;;;;5.07;3.28;;;9.50;83.80;;;;;;2065092;28;20141;-83
2021/05/19 02:15:54;;;;;;;6.22;3.28;;;9.50;83.90;;;;;;2064917;28;20190;-84
2021/05/19 02:16:54;;;;;;;5.03;3.90;;;9.50;83.90;;;;;;2072896;28;20030;-84
2021/05/19 02:17:55;;;;;;;6.65;3.53;;;9.50;83.90;;;;;;2064250;28;20555;-84
2021/05/19 02:18:56;;;;;;;4.53;3.25;;;9.50;84.00;;;;;;2065151;28;20583;-84
2021/05/19 02:20:17;;;;;;;5.45;3.80;;;9.40;84.00;;;;;;2076787;28;20042;-84
2021/05/19 02:21:17;;;;;;;5.45;3.53;;;9.40;84.00;;;;;;2089214;28;20032;-84
2021/05/19 02:22:18;;;;;;;5.32;3.35;;;9.40;84.00;;;;;;2081026;28;20534;-83
2021/05/19 02:23:19;;;;;;;5.25;3.88;;;9.40;83.90;;;;;;2072769;28;20033;-84
2021/05/19 02:24:19;;;;;;;5.10;3.30;;;9.40;84.00;;;;;;2060319;28;20026;-84
2021/05/19 02:25:22;;;;;;;5.85;3.80;;;9.40;84.00;;;;;;2070202;28;20436;-84
2021/05/19 02:26:22;;;;;;;5.10;3.80;;;9.40;84.00;;;;;;2073940;28;20423;-83
2021/05/19 02:27:23;;;;;;;5.45;3.70;;;9.40;84.00;;;;;;2072895;28;20073;-84
2021/05/19 02:28:23;;;;;;;5.68;3.75;;;9.40;84.00;;;;;;2081156;28;20033;-84
2021/05/19 02:29:24;;;;;;;5.72;3.67;;;9.40;84.00;;;;;;2073012;28;20030;-83
2021/05/19 02:30:25;;;;;;;5.68;3.80;;;9.40;84.00;;;;;;2066684;28;20050;-83
2021/05/19 02:31:26;;;;;;;4.80;3.60;;;9.40;84.10;;;;;;2070545;28;20554;-84
2021/05/19 02:32:28;;;;;;;5.55;3.63;;;9.40;84.10;;;;;;2065093;28;20121;-84
2021/05/19 02:33:28;;;;;;;5.95;3.83;;;9.40;84.20;;;;;;2055280;28;20033;-84
2021/05/19 02:34:29;;;;;;;5.70;3.60;;;9.40;84.20;;;;;;2061828;28;20540;-84
2021/05/19 02:35:30;;;;;;;5.93;3.95;;;9.40;84.20;;;;;;2069825;28;20061;-84
2021/05/19 02:36:30;;;;;;;6.22;3.80;;;9.40;84.20;;;;;;2063663;28;20030;-84
2021/05/19 02:37:31;;;;;;;5.20;3.90;;;9.30;84.10;;;;;;2056295;28;20085;-83
2021/05/19 02:38:34;;;;;;;5.45;3.85;;;9.40;84.20;;;;;;2062255;28;20118;-82
2021/05/19 02:39:35;;;;;;;6.20;3.70;;;9.40;84.20;;;;;;2063531;28;20461;-84
2021/05/19 02:40:35;;;;;;;6.22;4.03;;;9.40;84.20;;;;;;2064778;28;20050;-84
2021/05/19 02:41:41;;;;;;;6.43;4.40;;;9.40;84.20;;;;;;2070319;28;20037;-83
2021/05/19 02:42:43;;;;;;;5.75;4.03;;;9.40;84.20;;;;;;2064485;28;20038;-84
2021/05/19 02:43:43;;;;;;;5.65;3.92;;;9.40;84.20;;;;;;2064337;28;20042;-83
2021/05/19 02:44:44;;;;;;;6.00;3.95;;;9.40;84.20;;;;;;2066364;28;20362;-84
2021/05/19 02:45:45;;;;;;;5.82;3.88;;;9.30;84.10;;;;;;2072828;28;20061;-84
2021/05/19 02:46:45;;;;;;;6.30;4.20;;;9.40;84.20;;;;;;2064287;28;20026;-84
2021/05/19 02:47:46;;;;;;;5.70;4.00;;;9.40;84.20;;;;;;2071255;28;20485;-84
2021/05/19 02:48:47;;;;;;;6.18;4.38;;;9.40;84.20;;;;;;2068172;28;20022;-84
2021/05/19 02:49:47;;;;;;;5.80;4.00;;;9.30;84.20;;;;;;2064521;28;20089;-84
2021/05/19 02:50:48;;;;;;;6.30;4.18;;;9.40;84.30;;;;;;2064605;28;20026;-84
2021/05/19 02:51:49;;;;;;;5.05;3.60;;;9.40;84.30;;;;;;2064709;28;20034;-84
2021/05/19 02:52:50;;;;;;;6.88;4.22;;;9.40;84.30;;;;;;2064023;28;20034;-85
2021/05/19 02:53:50;;;;;;;6.50;4.35;;;9.30;84.30;;;;;;2056772;28;20463;-85
2021/05/19 02:54:51;;;;;;;6.60;4.38;;;9.30;84.90;;;;;;2059476;28;20035;-86
2021/05/19 02:55:53;;;;;;;6.10;4.35;;;9.30;84.30;;;;;;2065144;28;20048;-85
2021/05/19 02:56:53;;;;;;;5.55;4.20;;;9.30;84.50;;;;;;2077427;28;20028;-85
2021/05/19 02:57:54;;;;;;;6.13;4.10;;;9.30;84.40;;;;;;2070268;28;20562;-84
2021/05/19 02:58:55;;;;;;;6.35;4.13;;;9.30;84.50;;;;;;2056713;28;20029;-86
2021/05/19 02:59:56;;;;;;;5.55;4.10;;;9.30;84.50;;;;;;2064689;28;20038;-86
2021/05/19 03:00:56;;;;;;;6.45;4.20;;;9.30;84.50;;;;;;2067098;28;20038;-84
2021/05/19 03:01:57;;;;;;;6.05;4.50;;;9.30;84.50;;;;;;2049521;29;20102;-86
2021/05/19 03:02:58;;;;;;;6.95;4.30;;;9.30;84.50;;;;;;2064162;28;20389;-85
2021/05/19 03:03:59;;;;;;;7.07;4.47;;;9.30;84.50;;;;;;2072587;28;20025;-85
2021/05/19 03:05:00;;;;;;;6.53;4.40;;;9.30;84.50;;;;;;2062496;28;20019;-85
2021/05/19 03:06:00;;;;;;;6.57;4.53;;;9.30;84.50;;;;;;2068219;28;20117;-85
2021/05/19 03:07:03;;;;;;;6.32;4.35;;;9.30;84.50;;;;;;2072883;28;20025;-85
2021/05/19 03:08:04;;;;;;;6.68;4.80;;;9.30;84.60;;;;;;2064448;28;20034;-85
2021/05/19 03:09:06;;;;;;;5.88;4.30;;;9.30;84.60;;;;;;2064176;28;20535;-86
2021/05/19 03:10:07;;;;;;;5.85;4.47;;;9.20;84.50;;;;;;2058564;28;20051;-85
2021/05/19 03:11:08;;;;;;;6.38;4.57;;;9.20;84.50;;;;;;2071030;28;20388;-85
2021/05/19 03:12:09;;;;;;;6.10;4.18;;;9.20;84.60;;;;;;2071578;28;20030;-85
2021/05/19 03:13:10;;;;;;;7.32;4.50;;;9.20;84.50;;;;;;2058736;28;20456;-85
2021/05/19 03:14:11;;;;;;;6.60;4.60;;;9.20;84.50;;;;;;2066071;28;20034;-85
2021/05/19 03:15:12;;;;;;;5.78;4.28;;;9.20;84.60;;;;;;2063618;28;20026;-85
2021/05/19 03:16:13;;;;;;;6.22;4.30;;;9.20;84.60;;;;;;2073643;28;20034;-85
2021/05/19 03:17:13;;;;;;;6.35;4.57;;;9.20;84.60;;;;;;2063980;28;20095;-85
2021/05/19 03:18:14;;;;;;;6.25;4.60;;;9.20;84.60;;;;;;2064241;28;20549;-84
2021/05/19 03:19:15;;;;;;;6.45;4.43;;;9.20;84.60;;;;;;2069230;28;20034;-85
2021/05/19 03:20:15;;;;;;;5.88;4.20;;;9.20;84.70;;;;;;2068263;28;20092;-85
2021/05/19 03:21:16;;;;;;;6.38;4.40;;;9.20;84.70;;;;;;2061963;28;20030;-84
2021/05/19 03:22:17;;;;;;;6.28;4.30;;;9.20;84.60;;;;;;2072232;28;20033;-85
2021/05/19 03:23:17;;;;;;;5.25;4.00;;;9.20;84.60;;;;;;2067376;28;20029;-85
2021/05/19 03:24:18;;;;;;;6.25;4.28;;;9.20;84.60;;;;;;2063944;28;20033;-85
2021/05/19 03:25:20;;;;;;;6.85;4.47;;;9.20;84.60;;;;;;2071877;28;20030;-84
2021/05/19 03:26:20;;;;;;;6.68;4.50;;;9.20;84.60;;;;;;2070398;28;20516;-85
2021/05/19 03:27:21;;;;;;;5.78;4.25;;;9.20;84.60;;;;;;2057346;28;20081;-85
2021/05/19 03:28:22;;;;;;;5.97;4.60;;;9.20;84.60;;;;;;2071395;28;20419;-84
2021/05/19 03:29:23;;;;;;;6.25;4.90;;;9.20;84.70;;;;;;2057868;28;20031;-85
2021/05/19 03:30:24;;;;;;;6.82;5.00;;;9.20;84.70;;;;;;2062332;28;20061;-85
2021/05/19 03:31:25;;;;;;;7.15;4.90;;;9.20;84.70;;;;;;2064438;28;20456;-85
2021/05/19 03:32:25;;;;;;;6.47;4.70;;;9.20;84.70;;;;;;2056630;28;20095;-84
2021/05/19 03:33:26;;;;;;;6.28;4.50;;;9.20;84.70;;;;;;2071304;28;20030;-85
2021/05/19 03:34:27;;;;;;;6.20;4.65;;;9.20;84.70;;;;;;2064911;28;20023;-85
2021/05/19 03:35:27;;;;;;;5.28;4.15;;;9.20;84.70;;;;;;2059382;28;20070;-85
2021/05/19 03:36:28;;;;;;;6.38;4.88;;;9.20;84.70;;;;;;2074775;28;20064;-84
2021/05/19 03:37:29;;;;;;;6.88;5.10;;;9.10;84.70;;;;;;2068991;28;20029;-84
2021/05/19 03:38:30;;;;;;;6.05;4.65;;;9.10;84.70;;;;;;2060649;28;20573;-84
2021/05/19 03:39:30;;;;;;;6.72;4.47;;;9.10;84.80;;;;;;2063988;28;20077;-84
2021/05/19 03:40:31;;;;;;;6.63;4.50;;;9.20;84.80;;;;;;2057740;28;20027;-84
2021/05/19 03:41:32;;;;;;;6.10;4.47;;;9.10;84.70;;;;;;2070324;28;20035;-84
2021/05/19 03:42:33;;;;;;;6.50;4.78;;;9.20;84.80;;;;;;2072448;28;20116;-84
2021/05/19 03:43:36;;;;;;;5.72;4.00;;;9.20;84.80;;;;;;2068378;28;20607;-85
2021/05/19 03:44:36;;;;;;;5.78;4.40;;;9.20;84.80;;;;;;2072523;28;20494;-85
2021/05/19 03:45:37;;;;;;;6.00;4.60;;;9.20;84.80;;;;;;2071078;28;20029;-84
2021/05/19 03:46:38;;;;;;;6.88;4.57;;;9.20;84.80;;;;;;2064313;28;20065;-84
2021/05/19 03:47:39;;;;;;;6.20;4.65;;;9.20;84.80;;;;;;2055263;28;20074;-84
2021/05/19 03:48:39;;;;;;;5.65;4.25;;;9.20;84.80;;;;;;2065671;28;20050;-84
2021/05/19 03:49:40;;;;;;;5.72;4.15;;;9.20;84.80;;;;;;2080285;28;20073;-84
2021/05/19 03:50:43;;;;;;;5.85;4.18;;;9.30;84.90;;;;;;2072555;28;20056;-84
2021/05/19 03:51:44;;;;;;;5.60;4.22;;;9.20;84.80;;;;;;2064105;28;20470;-85
2021/05/19 03:52:46;;;;;;;6.47;4.93;;;9.30;84.80;;;;;;2067296;28;20038;-84
2021/05/19 03:53:47;;;;;;;7.30;4.82;;;9.30;84.80;;;;;;2072776;28;20034;-84
2021/05/19 03:54:47;;;;;;;6.10;4.47;;;9.30;84.80;;;;;;2073308;28;20495;-84
2021/05/19 03:55:48;;;;;;;6.47;4.38;;;9.30;84.70;;;;;;2077044;28;20025;-84
2021/05/19 03:56:50;;;;;;;6.68;4.28;;;9.30;84.70;;;;;;2073397;28;20038;-84
2021/05/19 03:57:51;;;;;;;6.43;4.57;;;9.30;84.70;;;;;;2075256;28;20034;-85
2021/05/19 03:58:52;;;;;;;5.60;4.07;;;9.40;84.70;;;;;;2063693;28;20026;-85
2021/05/19 03:59:52;;;;;;;6.35;4.25;;;9.40;84.70;;;;;;2072336;28;20111;-84
2021/05/19 04:00:53;;;;;;;7.18;5.15;;;9.40;84.60;;;;;;2076034;28;20018;-85
2021/05/19 04:01:54;;;;;;;5.65;4.30;;;9.40;84.60;;;;;;2074673;28;20510;-85
2021/05/19 04:02:55;;;;;;;6.30;4.47;;;9.40;84.60;;;;;;2083701;28;20388;-85
2021/05/19 04:03:56;;;;;;;6.07;4.50;;;9.40;84.60;;;;;;2068771;28;20041;-85
2021/05/19 04:04:57;;;;;;;6.55;5.15;;;9.40;84.60;;;;;;2063706;28;20053;-85
2021/05/19 04:05:57;;;;;;;6.45;4.50;;;9.40;84.60;;;;;;2056663;28;20049;-85
2021/05/19 04:06:58;;;;;;;6.72;4.57;;;9.50;84.60;;;;;;2064850;28;20026;-84
2021/05/19 04:07:59;;;;;;;5.72;4.68;;;9.50;84.60;;;;;;2064157;28;20073;-84
2021/05/19 04:08:59;;;;;;;6.60;4.90;;;9.50;84.60;;;;;;2064300;28;20132;-84
2021/05/19 04:10:00;;;;;;;5.43;4.18;;;9.50;84.60;;;;;;2063817;28;20104;-84
2021/05/19 04:11:01;;;;;;;6.30;4.53;;;9.50;85.20;;;;;;2055986;28;20062;-84
2021/05/19 04:12:03;;;;;;;5.78;4.28;;;9.50;84.60;;;;;;2072283;28;20021;-84
2021/05/19 04:13:05;;;;;;;5.78;4.40;;;9.50;84.60;;;;;;2071224;28;20030;-84
2021/05/19 04:14:06;;;;;;;6.68;4.30;;;9.60;84.70;;;;;;2070830;28;20032;-84
2021/05/19 04:15:08;;;;;;;6.05;4.55;;;9.60;84.60;;;;;;2072365;28;20032;-84
2021/05/19 04:16:10;;;;;;;6.18;4.70;;;9.60;84.60;;;;;;2070118;28;20029;-84
2021/05/19 04:17:11;;;;;;;6.95;4.63;;;9.60;84.60;;;;;;2079526;28;20037;-84
2021/05/19 04:18:12;;;;;;;6.07;4.63;;;9.60;84.50;;;;;;2071971;28;20054;-85
2021/05/19 04:19:12;;;;;;;6.55;4.78;;;9.60;84.50;;;;;;2076703;28;20111;-84
2021/05/19 04:20:14;;;;;;;5.55;4.43;;;9.60;84.50;;;;;;2071210;28;20029;-85
2021/05/19 04:21:15;;;;;;;5.97;4.70;;;9.60;84.40;;;;;;2071912;28;20562;-84
2021/05/19 04:22:15;;;;;;;7.00;5.15;;;9.70;84.50;;;;;;2071915;28;20076;-84
2021/05/19 04:23:16;;;;;;;6.18;4.65;;;9.70;84.50;;;;;;2071456;28;20488;-84
2021/05/19 04:24:17;;;;;;;6.35;4.60;;;9.70;84.50;;;;;;2071699;28;20042;-84
2021/05/19 04:25:18;;;;;;;6.90;4.80;;;9.70;84.40;;;;;;2072282;28;20614;-84
2021/05/19 04:26:19;;;;;;;6.95;4.70;;;9.70;84.40;;;;;;2068224;28;20125;-83
2021/05/19 04:27:20;;;;;;;6.22;4.80;;;9.70;84.40;;;;;;2072132;28;20068;-84
2021/05/19 04:28:21;;;;;;;5.97;4.53;;;9.70;84.40;;;;;;2063185;28;20041;-84
2021/05/19 04:29:21;;;;;;;7.03;4.50;;;9.70;84.40;;;;;;2063315;28;20049;-83
2021/05/19 04:30:22;;;;;;;5.70;4.57;;;9.70;84.40;;;;;;2065333;28;20535;-83
2021/05/19 04:31:23;;;;;;;6.13;4.63;;;9.70;84.50;;;;;;2068216;28;20496;-83
2021/05/19 04:32:23;;;;;;;6.88;4.55;;;9.70;84.40;;;;;;2071005;28;20056;-84
2021/05/19 04:33:24;;;;;;;5.50;4.43;;;9.70;84.40;;;;;;2055629;28;20031;-83
2021/05/19 04:34:25;;;;;;;6.57;5.10;;;9.70;84.40;;;;;;2055960;28;20026;-84
2021/05/19 04:35:25;;;;;;;7.03;4.78;;;9.70;84.40;;;;;;2071898;28;20522;-84
2021/05/19 04:36:26;;;;;;;6.43;4.40;;;9.80;84.40;;;;;;2068805;28;20511;-84
2021/05/19 04:37:27;;;;;;;6.13;4.80;;;9.80;84.40;;;;;;2066681;28;20107;-83
2021/05/19 04:38:27;;;;;;;6.82;5.07;;;9.80;84.30;;;;;;2073382;28;20044;-84
2021/05/19 04:39:28;;;;;;;5.88;4.88;;;9.80;84.30;;;;;;2063173;28;20030;-83
2021/05/19 04:40:29;;;;;;;5.88;4.70;;;9.80;84.30;;;;;;2055300;28;20125;-84
2021/05/19 04:41:30;;;;;;;6.88;4.70;;;9.80;84.30;;;;;;2070796;28;20053;-84
2021/05/19 04:42:31;;;;;;;7.07;5.20;;;9.80;84.30;;;;;;2070660;28;20125;-84
2021/05/19 04:43:32;;;;;;;5.60;4.50;;;9.80;84.30;;;;;;2073443;28;20137;-83
2021/05/19 04:44:32;;;;;;;6.22;4.55;;;9.80;84.30;;;;;;2081067;28;20037;-84
2021/05/19 04:45:33;;;;;;;5.97;4.60;;;9.80;84.30;;;;;;2070836;28;20408;-83
2021/05/19 04:46:37;;;;;;;5.80;4.55;;;9.80;84.90;;;;;;2076219;28;20048;-84
2021/05/19 04:47:37;;;;;;;5.75;4.63;;;9.90;84.30;;;;;;2080354;28;20018;-84
2021/05/19 04:48:38;;;;;;;6.35;4.40;;;9.80;84.30;;;;;;2076357;28;20038;-84
2021/05/19 04:49:39;;;;;;;5.60;4.22;;;9.80;84.30;;;;;;2074183;28;20026;-83
2021/05/19 04:50:40;;;;;;;5.63;4.55;;;9.90;84.30;;;;;;2078701;28;20037;-84
2021/05/19 04:51:41;;;;;;;6.82;4.63;;;9.90;84.30;;;;;;2074858;28;20033;-84
2021/05/19 04:52:41;;;;;;;6.95;5.25;;;9.90;84.30;;;;;;2069053;28;20030;-83
2021/05/19 04:53:42;;;;;;;5.85;4.50;;;9.90;84.30;;;;;;2065662;28;20030;-84
2021/05/19 04:54:43;;;;;;;5.88;4.85;;;9.90;84.30;;;;;;2066951;28;20501;-84
2021/05/19 04:55:43;;;;;;;5.88;4.43;;;9.90;84.30;;;;;;2068635;28;20041;-83
2021/05/19 04:56:44;;;;;;;6.78;4.85;;;9.90;84.20;;;;;;2062408;28;20505;-83
2021/05/19 04:57:45;;;;;;;5.78;4.35;;;9.90;84.20;;;;;;2055736;28;20125;-84
2021/05/19 04:58:45;;;;;;;7.18;4.80;;;9.90;84.20;;;;;;2068667;28;20093;-84
2021/05/19 04:59:46;;;;;;;5.93;4.60;;;9.90;84.20;;;;;;2064268;28;20043;-83
2021/05/19 05:00:46;;;;;;;6.97;4.53;;;10.00;84.20;;;;;;2061041;28;20038;-83
2021/05/19 05:01:47;;;;;;;5.43;4.57;;;9.90;84.20;;;;;;2067626;28;20026;-83
2021/05/19 05:02:48;;;;;;;6.35;4.72;;;10.00;84.20;;;;;;2053519;28;20498;-83
2021/05/19 05:03:48;;;;;;;6.68;4.90;;;10.00;84.20;;;;;;2072936;28;20044;-83
2021/05/19 05:04:50;;;;;;;6.03;4.43;;;10.00;84.20;;;;;;2068462;28;20030;-82
2021/05/19 05:05:53;;;;;;;6.57;4.80;;;10.00;84.20;;;;;;2057275;28;20030;-83
2021/05/19 05:06:54;;;;;;;6.15;4.70;;;10.00;84.20;;;;;;2056041;28;20027;-83
2021/05/19 05:07:54;;;;;;;5.70;4.22;;;10.00;84.20;;;;;;2065313;28;20590;-83
2021/05/19 05:08:55;;;;;;;6.65;4.80;;;10.00;84.10;;;;;;2065410;28;20031;-83
2021/05/19 05:09:56;;;;;;;5.53;4.35;;;10.00;84.10;;;;;;2081370;28;20037;-83
2021/05/19 05:10:57;;;;;;;6.22;4.82;;;10.10;84.10;;;;;;2073602;28;20033;-83
2021/05/19 05:11:58;;;;;;;6.57;4.95;;;10.10;84.10;;;;;;2074436;28;20113;-83
2021/05/19 05:12:58;;;;;;;5.70;4.22;;;10.10;84.10;;;;;;2070189;28;20057;-84
2021/05/19 05:13:59;;;;;;;5.97;4.55;;;10.10;84.10;;;;;;2055629;28;20060;-84
2021/05/19 05:15:00;;;;;;;6.00;4.60;;;10.10;84.20;;;;;;2064023;28;20077;-84
2021/05/19 05:16:00;;;;;;;6.00;4.50;;;10.10;84.10;;;;;;2049315;28;20059;-83
2021/05/19 05:17:01;;;;;;;6.43;4.60;;;10.20;84.20;;;;;;2064833;28;20030;-83
2021/05/19 05:18:02;;;;;;;5.30;4.22;;;10.20;84.10;;;;;;2065970;28;20061;-84
2021/05/19 05:19:03;;;;;;;6.32;4.47;;;10.20;84.10;;;;;;2064704;28;20026;-84
2021/05/19 05:20:06;;;;;;;6.25;4.60;;;10.20;84.10;;;;;;2066837;28;20089;-83
2021/05/19 05:21:08;;;;;;;5.95;4.68;;;10.30;84.10;;;;;;2074719;28;20022;-83
2021/05/19 05:22:09;;;;;;;5.40;4.25;;;10.30;84.60;;;;;;2073331;28;20113;-83
2021/05/19 05:23:10;;;;;;;6.57;4.88;;;10.30;84.00;;;;;;2068638;28;20097;-83
2021/05/19 05:24:10;;;;;;;6.28;4.50;;;10.30;83.90;;;;;;2081929;28;20053;-83